Terminal Aerodrome Forecast
Issued by NWS Sterling, VA

Current Version | Previous Version | Graphics & Text | Print | Product List | Glossary On
Versions: 1 2 3 4 5 6 7 8 9 10 11 12 13 14 15
003
FTUS41 KLWX 221457 AAA
TAFMRB
TAF AMD
KMRB 221457Z 2215/2312 35006KT P6SM SCT025 OVC030
     FM221800 35006KT P6SM -RA BKN015 OVC025
     FM222100 35006KT P6SM -RA BKN008 OVC025
     FM230000 VRB03KT 4SM BR BKN010 OVC025
     FM230100 VRB03KT 4SM BR BKN020 OVC025
     FM230200 32004KT 4SM BR BKN015 OVC025
     FM230300 33004KT 3SM BR SCT025 OVC070
     FM230600 36004KT P6SM SCT025 BKN110=

USA.gov is the U.S. government's official web portal to all federal, state and local government web resources and services.